Time;durP1;ratioP1;P1;durP2;ratioP2;P2;SDS_P1;SDS_P2;PMS_P1;PMS_P2;Temp;Humidity;BMP_temperature;BMP_pressure;BME280_temperature;BME280_humidity;BME280_pressure;Samples;Min_cycle;Max_cycle;Signal;HPM_P1;HPM_P2
2021/06/01 00:01:36;;;;;;;1.9;0.9;;;;;;;9.33;70.30762;939.9803;;;;
2021/06/01 00:04:02;;;;;;;1.4;1;;;;;;;9.32;70.38477;940.0143;;;;
2021/06/01 00:06:30;;;;;;;1.7;1.1;;;;;;;9.33;70.1709;939.997;;;;
2021/06/01 00:08:55;;;;;;;1.4;0.9;;;;;;;9.4;70.06738;939.98;;;;
2021/06/01 00:11:22;;;;;;;1;0.9;;;;;;;9.49;69.71777;939.9579;;;;
2021/06/01 00:13:47;;;;;;;1.9;0.9;;;;;;;9.52;69.59766;939.9235;;;;
2021/06/01 00:16:12;;;;;;;1;0.9;;;;;;;9.49;69.3418;939.9483;;;;
2021/06/01 00:18:37;;;;;;;3.2;1.2;;;;;;;9.41;69.58105;939.9336;;;;
2021/06/01 00:21:04;;;;;;;3.3;1.2;;;;;;;9.35;69.69531;939.8647;;;;
2021/06/01 00:23:28;;;;;;;1.4;1;;;;;;;9.22;70.05078;939.9388;;;;
2021/06/01 00:25:53;;;;;;;0.8;0.8;;;;;;;9.3;69.97168;939.8106;;;;
2021/06/01 00:28:18;;;;;;;2.5;1.4;;;;;;;9.24;69.91699;939.8717;;;;
2021/06/01 00:30:43;;;;;;;1;0.8;;;;;;;9.06;70.70605;939.9397;;;;
2021/06/01 00:33:08;;;;;;;1.6;1.1;;;;;;;9.12;70.54688;939.9328;;;;
2021/06/01 00:35:35;;;;;;;1.2;1.1;;;;;;;9.13;70.35449;939.9075;;;;
2021/06/01 00:37:59;;;;;;;1.3;0.8;;;;;;;9.1;70.29199;939.9117;;;;
2021/06/01 00:40:26;;;;;;;2;1.1;;;;;;;8.94;70.82324;939.9158;;;;
2021/06/01 00:42:51;;;;;;;1.7;1.1;;;;;;;8.81;71.48438;939.8738;;;;
2021/06/01 00:45:18;;;;;;;0.8;0.7;;;;;;;8.71;71.68359;939.8582;;;;
2021/06/01 00:47:43;;;;;;;1.6;1.3;;;;;;;8.65;71.95801;939.8443;;;;
2021/06/01 00:50:08;;;;;;;1.1;0.8;;;;;;;8.79;71.44727;939.8365;;;;
2021/06/01 00:52:33;;;;;;;1.3;1;;;;;;;8.9;71.18066;939.8611;;;;
2021/06/01 00:54:58;;;;;;;1.1;0.8;;;;;;;8.97;70.86328;939.9156;;;;
2021/06/01 00:57:23;;;;;;;2.3;0.9;;;;;;;8.97;70.8291;939.8322;;;;
2021/06/01 00:59:48;;;;;;;2.3;1.2;;;;;;;8.76;71.05469;939.832;;;;
2021/06/01 01:02:16;;;;;;;1.4;1;;;;;;;8.76;71.59082;939.825;;;;
2021/06/01 01:04:41;;;;;;;1.1;0.9;;;;;;;8.88;70.84766;939.7972;;;;
2021/06/01 01:07:16;;;;;;;1.5;1;;;;;;;8.95;70.65527;939.7279;;;;
2021/06/01 01:09:33;;;;;;;1.3;0.9;;;;;;;8.92;70.56934;939.7216;;;;
2021/06/01 01:11:58;;;;;;;2;1.2;;;;;;;8.64;71.75195;939.7575;;;;
2021/06/01 01:14:24;;;;;;;1;0.9;;;;;;;8.5;72.29688;939.7221;;;;
2021/06/01 01:16:49;;;;;;;1.7;1.1;;;;;;;8.22;73.61328;939.7692;;;;
2021/06/01 01:19:14;;;;;;;1.3;1;;;;;;;8.22;73.80469;939.7286;;;;
2021/06/01 01:21:39;;;;;;;1.3;1.2;;;;;;;8.13;74.25488;939.7009;;;;
2021/06/01 01:24:04;;;;;;;2.2;1.2;;;;;;;8.32;73.41406;939.7101;;;;
2021/06/01 01:26:29;;;;;;;1;0.9;;;;;;;8.42;73.0791;939.6666;;;;
2021/06/01 01:28:55;;;;;;;1.6;1.5;;;;;;;8.49;72.62402;939.7186;;;;
2021/06/01 01:31:20;;;;;;;1.2;1;;;;;;;8.56;72.25098;939.7011;;;;
2021/06/01 01:33:45;;;;;;;1.1;1;;;;;;;8.47;72.26953;939.7319;;;;
2021/06/01 01:36:10;;;;;;;1.1;1;;;;;;;8.31;73.01465;939.7106;;;;
2021/06/01 01:38:35;;;;;;;1.9;1;;;;;;;8.19;73.7207;939.7181;;;;
2021/06/01 01:41:00;;;;;;;2.1;1.5;;;;;;;8.04;74.30859;939.7079;;;;
2021/06/01 01:43:29;;;;;;;2.5;0.9;;;;;;;7.93;74.85742;939.668;;;;
2021/06/01 01:45:54;;;;;;;1;0.9;;;;;;;7.95;75.01953;939.6526;;;;
2021/06/01 01:51:25;;;;;;;1.4;1.1;;;;;;;7.97;75.27051;939.6172;;;;
2021/06/01 01:53:50;;;;;;;8.8;0.8;;;;;;;8.03;74.5;939.5634;;;;
2021/06/01 01:56:17;;;;;;;2.4;1;;;;;;;8.11;74.17383;939.5428;;;;
2021/06/01 01:58:40;;;;;;;1.4;1.1;;;;;;;8.15;73.53223;939.5937;;;;
2021/06/01 02:01:05;;;;;;;0.9;0.8;;;;;;;8.13;73.88086;939.5773;;;;
2021/06/01 02:03:30;;;;;;;1.8;1.1;;;;;;;7.88;74.71289;939.568;;;;
2021/06/01 02:05:55;;;;;;;2.1;1;;;;;;;7.77;75.55469;939.5581;;;;
2021/06/01 02:08:20;;;;;;;1.9;1.3;;;;;;;7.85;75.28711;939.5768;;;;
2021/06/01 02:10:48;;;;;;;1;0.9;;;;;;;7.72;75.79492;939.5545;;;;
2021/06/01 02:13:13;;;;;;;1.1;1;;;;;;;7.86;75.29883;939.5856;;;;
2021/06/01 02:15:40;;;;;;;1.1;0.9;;;;;;;8.03;74.6123;939.5047;;;;
2021/06/01 02:18:05;;;;;;;2.3;1.3;;;;;;;7.96;74.52148;939.522;;;;
2021/06/01 02:20:30;;;;;;;0.7;0.7;;;;;;;7.7;75.6123;939.5851;;;;
2021/06/01 02:25:22;;;;;;;1;0.8;;;;;;;7.56;76.30078;939.592;;;;
2021/06/01 02:27:47;;;;;;;2;0.9;;;;;;;7.59;76.2041;939.4952;;;;
2021/06/01 02:30:12;;;;;;;1;0.9;;;;;;;7.58;76.00977;939.5623;;;;
2021/06/01 02:32:37;;;;;;;4.7;1.4;;;;;;;7.54;76.26367;939.5764;;;;
2021/06/01 02:36:12;;;;;;;1.9;1.2;;;;;;;7.25;77.65137;939.5671;;;;
2021/06/01 02:38:37;;;;;;;1.6;1.1;;;;;;;7.17;78.2373;939.5325;;;;
2021/06/01 02:41:03;;;;;;;1.2;1;;;;;;;7.35;77.48633;939.5108;;;;
2021/06/01 02:43:28;;;;;;;1.8;1;;;;;;;7.27;77.6543;939.467;;;;
2021/06/01 02:45:55;;;;;;;1.7;1.1;;;;;;;7.38;77.13965;939.459;;;;
2021/06/01 02:48:20;;;;;;;1.6;1.2;;;;;;;7.48;76.74023;939.4127;;;;
2021/06/01 02:51:28;;;;;;;2;1;;;;;;;7.36;77.18164;939.4895;;;;
2021/06/01 02:53:52;;;;;;;1.7;1.1;;;;;;;7.29;77.77246;939.4461;;;;
2021/06/01 02:56:17;;;;;;;2;1.4;;;;;;;7.39;77.4248;939.4434;;;;
2021/06/01 02:58:42;;;;;;;1.6;1.1;;;;;;;7.48;77.05762;939.4412;;;;
2021/06/01 03:01:09;;;;;;;2.6;1.8;;;;;;;7.41;77.22461;939.4377;;;;
2021/06/01 03:03:34;;;;;;;3;1.6;;;;;;;7.36;77.19336;939.3588;;;;
2021/06/01 03:06:00;;;;;;;1.3;0.9;;;;;;;7.35;77.14648;939.3817;;;;
2021/06/01 03:08:26;;;;;;;1.6;1.1;;;;;;;7.31;77.45703;939.3268;;;;
2021/06/01 03:10:51;;;;;;;2.4;1;;;;;;;7.31;77.29883;939.3419;;;;
2021/06/01 03:13:16;;;;;;;3.9;1.3;;;;;;;7.04;78.49512;939.3209;;;;
2021/06/01 03:18:06;;;;;;;2.4;1.6;;;;;;;7.16;78.37012;939.3428;;;;
2021/06/01 03:20:32;;;;;;;6.7;1.5;;;;;;;7.34;77.42969;939.3909;;;;
2021/06/01 03:22:57;;;;;;;2.2;1.4;;;;;;;7.05;78.41797;939.3663;;;;
2021/06/01 03:25:23;;;;;;;2;1.6;;;;;;;7.01;78.87598;939.3289;;;;
2021/06/01 03:27:48;;;;;;;2.3;1.2;;;;;;;7.2;78.06055;939.3644;;;;
2021/06/01 03:30:13;;;;;;;1.5;1.2;;;;;;;7.21;77.8584;939.3689;;;;
2021/06/01 03:32:38;;;;;;;3.9;1.4;;;;;;;7.19;77.97949;939.3594;;;;
2021/06/01 03:35:03;;;;;;;7;1.5;;;;;;;7.16;78.05469;939.3897;;;;
2021/06/01 03:37:57;;;;;;;1.6;1.3;;;;;;;7.11;78.29492;939.295;;;;
2021/06/01 03:40:23;;;;;;;2.1;1.4;;;;;;;7.07;78.55762;939.3772;;;;
2021/06/01 03:42:47;;;;;;;3.5;1.5;;;;;;;6.85;79.54785;939.3667;;;;
2021/06/01 03:45:12;;;;;;;2.8;1.5;;;;;;;6.61;80.4541;939.3918;;;;
2021/06/01 03:47:37;;;;;;;2.6;1.3;;;;;;;6.54;81.08398;939.3929;;;;
2021/06/01 03:50:04;;;;;;;1.6;1.4;;;;;;;6.71;80.63184;939.4373;;;;
2021/06/01 03:52:30;;;;;;;1.2;1.1;;;;;;;6.69;80.49023;939.4359;;;;
2021/06/01 03:54:55;;;;;;;2.8;1.8;;;;;;;6.76;80.5498;939.3886;;;;
2021/06/01 03:57:20;;;;;;;4.5;1.4;;;;;;;6.96;79.43164;939.3828;;;;
2021/06/01 04:00:35;;;;;;;2;1.2;;;;;;;7.04;79.06152;939.3858;;;;
2021/06/01 04:03:04;;;;;;;1.5;1.3;;;;;;;7.05;79.16504;939.3727;;;;
2021/06/01 04:05:29;;;;;;;2.9;1.6;;;;;;;7.06;78.94043;939.3847;;;;
2021/06/01 04:07:54;;;;;;;2.1;1.1;;;;;;;7.17;78.75781;939.3076;;;;
2021/06/01 04:10:19;;;;;;;1.2;1.1;;;;;;;6.96;79.04688;939.363;;;;
2021/06/01 04:12:44;;;;;;;2.5;1.6;;;;;;;6.76;80.56055;939.345;;;;
2021/06/01 04:17:34;;;;;;;1.7;1.2;;;;;;;6.97;79.33203;939.3278;;;;
2021/06/01 04:20:00;;;;;;;1.9;1.1;;;;;;;7.11;78.82617;939.2902;;;;
2021/06/01 04:24:55;;;;;;;2.2;1.3;;;;;;;7;79.29102;939.4036;;;;
2021/06/01 04:29:01;;;;;;;1.1;0.9;;;;;;;6.91;79.7627;939.3333;;;;
2021/06/01 04:31:08;;;;;;;3.3;1.6;;;;;;;7.06;79.33887;939.3572;;;;
2021/06/01 04:33:34;;;;;;;7.9;1.1;;;;;;;7.09;78.91309;939.3769;;;;
2021/06/01 04:35:59;;;;;;;1.3;1.1;;;;;;;7.1;79.03809;939.4103;;;;
2021/06/01 04:38:24;;;;;;;2.5;1.1;;;;;;;7.17;78.83789;939.4254;;;;
2021/06/01 04:40:51;;;;;;;1.8;1.2;;;;;;;7.21;78.68555;939.3895;;;;
2021/06/01 04:43:16;;;;;;;1.9;1.4;;;;;;;7.37;78.53418;939.3647;;;;
2021/06/01 04:46:48;;;;;;;8.6;1.4;;;;;;;7.42;77.78418;939.3393;;;;
2021/06/01 04:49:15;;;;;;;2.8;1.4;;;;;;;7.43;78;939.2896;;;;
2021/06/01 04:54:05;;;;;;;3.4;2;;;;;;;7.58;77.54004;939.2865;;;;
2021/06/01 04:56:30;;;;;;;2.2;1.5;;;;;;;7.69;76.62988;939.2924;;;;
2021/06/01 04:58:55;;;;;;;1;0.9;;;;;;;7.84;76.55371;939.1944;;;;
2021/06/01 05:01:20;;;;;;;2.4;1.2;;;;;;;7.94;75.94629;939.2606;;;;
2021/06/01 05:03:54;;;;;;;1.5;1.3;;;;;;;8.39;75.74414;939.2444;;;;
2021/06/01 05:06:19;;;;;;;2.3;1.5;;;;;;;10.95;66.02246;939.1965;;;;
2021/06/01 05:08:44;;;;;;;1.5;1;;;;;;;12.61;58.41895;939.1345;;;;
2021/06/01 05:11:09;;;;;;;1.5;0.8;;;;;;;13.79;54.90625;939.0754;;;;
2021/06/01 05:13:34;;;;;;;1.2;1;;;;;;;14.52;52.04883;939.1203;;;;
2021/06/01 05:15:59;;;;;;;1.6;1.2;;;;;;;15.13;50.43652;939.0577;;;;
2021/06/01 05:18:24;;;;;;;2.2;0.7;;;;;;;15.79;47.57715;939.0366;;;;
2021/06/01 05:20:51;;;;;;;1.2;0.8;;;;;;;16.22;46.43164;938.9694;;;;
2021/06/01 05:23:16;;;;;;;0.8;0.6;;;;;;;17.36;43.79297;938.9852;;;;
2021/06/01 05:25:41;;;;;;;0.9;0.7;;;;;;;17.92;41.53809;939.027;;;;
2021/06/01 05:28:07;;;;;;;3.8;1;;;;;;;18.14;41.46582;938.9969;;;;
2021/06/01 05:30:39;;;;;;;0.9;0.7;;;;;;;18.24;43.0332;939.0072;;;;
2021/06/01 05:33:15;;;;;;;0.9;0.6;;;;;;;18.99;39.78809;938.9586;;;;
2021/06/01 05:35:27;;;;;;;1.4;0.6;;;;;;;19.94;39.53613;938.9443;;;;
2021/06/01 05:37:48;;;;;;;0.9;0.6;;;;;;;19.88;37.79199;938.8836;;;;
2021/06/01 05:40:14;;;;;;;3.8;0.5;;;;;;;20.62;37.52832;938.9022;;;;
2021/06/01 05:42:39;;;;;;;1.1;0.9;;;;;;;21.58;35.57227;938.9172;;;;
2021/06/01 05:45:04;;;;;;;3.8;1.4;;;;;;;22.4;34.08984;938.8563;;;;
2021/06/01 05:49:54;;;;;;;3.3;0.5;;;;;;;23.34;32.7627;938.8466;;;;
2021/06/01 05:52:19;;;;;;;0.2;0.1;;;;;;;22.56;33.24512;938.8458;;;;
2021/06/01 05:54:45;;;;;;;0.3;0.3;;;;;;;22.81;32.08984;938.8242;;;;
2021/06/01 05:57:10;;;;;;;1.6;0.6;;;;;;;22.83;31.9502;938.7818;;;;
2021/06/01 05:59:35;;;;;;;11.7;0.7;;;;;;;23.14;32.70117;938.776;;;;
2021/06/01 06:02:00;;;;;;;2.2;0.4;;;;;;;22.02;32.66602;938.7313;;;;
2021/06/01 06:04:28;;;;;;;0.6;0.3;;;;;;;22.44;32.54395;938.7544;;;;
2021/06/01 06:06:53;;;;;;;1.4;0.6;;;;;;;23.18;31.21191;938.7111;;;;
2021/06/01 06:09:18;;;;;;;0.6;0.5;;;;;;;22.55;32.56445;938.6652;;;;
2021/06/01 06:11:43;;;;;;;0.3;0.3;;;;;;;24.13;30.32422;938.6372;;;;
2021/06/01 06:14:10;;;;;;;0.4;0.4;;;;;;;24.84;29.01563;938.6508;;;;
2021/06/01 06:16:35;;;;;;;0.9;0.6;;;;;;;24.99;30.12305;938.6057;;;;
2021/06/01 06:19:00;;;;;;;0.7;0.5;;;;;;;24.64;29.34473;938.6495;;;;
2021/06/01 06:21:26;;;;;;;0.3;0.3;;;;;;;24.52;29.91504;938.5492;;;;
2021/06/01 06:23:51;;;;;;;0.5;0.4;;;;;;;25.54;28.39941;938.568;;;;
2021/06/01 06:26:16;;;;;;;2.7;0.7;;;;;;;26.75;26.99707;938.575;;;;
2021/06/01 06:28:41;;;;;;;0.4;0.4;;;;;;;27.74;26.11719;938.5485;;;;
2021/06/01 06:31:07;;;;;;;0.4;0.4;;;;;;;26.47;25.61816;938.5076;;;;
2021/06/01 06:33:32;;;;;;;3.1;1;;;;;;;27.06;26.08984;938.5098;;;;
2021/06/01 06:35:59;;;;;;;0.9;0.6;;;;;;;27.04;26.125;938.5525;;;;
2021/06/01 06:38:24;;;;;;;0.7;0.5;;;;;;;28.22;24.67188;938.5137;;;;
2021/06/01 06:40:59;;;;;;;0.4;0.4;;;;;;;28.78;24.0957;938.4934;;;;
2021/06/01 06:43:15;;;;;;;1.1;0.8;;;;;;;26.96;25.20703;938.5535;;;;
2021/06/01 06:45:41;;;;;;;0.7;0.5;;;;;;;27.05;25.75781;938.4604;;;;
2021/06/01 06:48:08;;;;;;;0.7;0.6;;;;;;;27.75;24.53906;938.4514;;;;
2021/06/01 06:50:32;;;;;;;0.9;0.6;;;;;;;27.77;24.83691;938.41;;;;
2021/06/01 06:52:57;;;;;;;0.6;0.4;;;;;;;27.39;25.3623;938.378;;;;
2021/06/01 06:55:22;;;;;;;1.7;0.9;;;;;;;27.99;25.06348;938.3666;;;;
2021/06/01 06:57:47;;;;;;;0.6;0.5;;;;;;;28.95;25.33105;938.3496;;;;
2021/06/01 07:00:12;;;;;;;0.2;0.2;;;;;;;29.49;24.84863;938.3339;;;;
2021/06/01 07:02:37;;;;;;;0.3;0.3;;;;;;;31.2;22.34668;938.3226;;;;
2021/06/01 07:05:02;;;;;;;0.5;0.4;;;;;;;31.72;21.86914;938.2847;;;;
2021/06/01 07:07:27;;;;;;;1.6;0.5;;;;;;;32.13;22.21191;938.2701;;;;
2021/06/01 07:09:54;;;;;;;0.7;0.3;;;;;;;31.84;21.75488;938.2449;;;;
2021/06/01 07:12:19;;;;;;;0.3;0.3;;;;;;;32.61;21.43262;938.2339;;;;
2021/06/01 07:14:44;;;;;;;0.4;0.4;;;;;;;33.15;20.18457;938.213;;;;
2021/06/01 07:17:09;;;;;;;1.4;0.5;;;;;;;32.62;21.63672;938.223;;;;
2021/06/01 07:19:35;;;;;;;0.9;0.5;;;;;;;31.87;23.00293;938.2062;;;;
2021/06/01 07:22:00;;;;;;;0.3;0.3;;;;;;;32.91;21.51855;938.2021;;;;
2021/06/01 07:24:25;;;;;;;0.2;0.2;;;;;;;35.04;18.42188;938.2433;;;;
2021/06/01 07:26:51;;;;;;;0.3;0.3;;;;;;;33.85;19.09668;938.1808;;;;
2021/06/01 07:29:16;;;;;;;0.5;0.3;;;;;;;34.62;18.92383;938.1641;;;;
2021/06/01 07:31:44;;;;;;;0.6;0.4;;;;;;;35.5;18.79102;938.1758;;;;
2021/06/01 07:34:08;;;;;;;0.4;0.4;;;;;;;35.11;18.89551;938.1708;;;;
2021/06/01 07:36:35;;;;;;;0.3;0.3;;;;;;;36.16;17.42773;938.1325;;;;
2021/06/01 07:38:59;;;;;;;0.7;0.4;;;;;;;35.8;18.5498;938.108;;;;
2021/06/01 07:41:24;;;;;;;0.4;0.3;;;;;;;35.26;19.14355;938.1119;;;;
2021/06/01 07:43:52;;;;;;;0.4;0.3;;;;;;;34.38;20.08203;938.06;;;;
2021/06/01 07:46:16;;;;;;;0.3;0.3;;;;;;;36.13;18.0791;938.1042;;;;
2021/06/01 07:48:41;;;;;;;0.9;0.4;;;;;;;36.27;18.61719;938.1021;;;;
2021/06/01 07:51:11;;;;;;;5;0.7;;;;;;;32.46;21.98926;937.9778;;;;
2021/06/01 07:53:34;;;;;;;1.1;0.4;;;;;;;34.64;19.41895;937.9919;;;;
2021/06/01 07:55:57;;;;;;;0.2;0.2;;;;;;;34.14;19.46973;938.0237;;;;
2021/06/01 07:58:23;;;;;;;0.9;0.4;;;;;;;33.79;19.43066;937.9713;;;;
2021/06/01 08:00:48;;;;;;;1.1;0.3;;;;;;;34.33;19.5498;937.9756;;;;
2021/06/01 08:03:17;;;;;;;0.4;0.4;;;;;;;32.55;20.27734;937.9708;;;;
2021/06/01 08:05:40;;;;;;;0.2;0.2;;;;;;;33.72;19.47559;937.9673;;;;
2021/06/01 08:08:07;;;;;;;0.2;0.2;;;;;;;34.75;18.7002;938.0008;;;;
2021/06/01 08:10:32;;;;;;;0.2;0.2;;;;;;;35.36;19.4375;937.9928;;;;
2021/06/01 08:12:57;;;;;;;0.6;0.5;;;;;;;35.78;18.79004;937.9235;;;;
2021/06/01 08:15:24;;;;;;;0.4;0.2;;;;;;;35.83;19.81934;937.8929;;;;
2021/06/01 08:17:50;;;;;;;0.6;0.4;;;;;;;35.26;19.93945;937.9208;;;;
2021/06/01 08:20:15;;;;;;;0.3;0.3;;;;;;;35.02;19.5791;937.9362;;;;
2021/06/01 08:22:41;;;;;;;2;0.5;;;;;;;33.87;21.20313;937.9014;;;;
2021/06/01 08:25:05;;;;;;;0.4;0.2;;;;;;;32.81;21.41797;937.9222;;;;
2021/06/01 08:28:04;;;;;;;0.6;0.3;;;;;;;32.87;22.28516;937.8914;;;;
2021/06/01 08:30:31;;;;;;;2.3;0.4;;;;;;;32.71;21.19727;937.8533;;;;
2021/06/01 08:32:54;;;;;;;0.2;0.2;;;;;;;32.42;20.71582;937.8675;;;;
2021/06/01 08:35:22;;;;;;;0.4;0.3;;;;;;;33.51;19.95996;937.8511;;;;
2021/06/01 08:37:47;;;;;;;0.4;0.3;;;;;;;30.71;24.13867;937.9047;;;;
2021/06/01 08:40:17;;;;;;;0.6;0.5;;;;;;;31.5;22.63672;937.9006;;;;
2021/06/01 08:42:45;;;;;;;2.8;1;;;;;;;30.9;23.50391;937.8947;;;;
2021/06/01 08:45:10;;;;;;;0.6;0.6;;;;;;;31.07;24.14648;937.8321;;;;
2021/06/01 08:47:37;;;;;;;0.6;0.6;;;;;;;31.04;23.71484;937.7997;;;;
2021/06/01 08:50:02;;;;;;;0.4;0.3;;;;;;;30.53;24.65527;937.849;;;;
2021/06/01 08:52:27;;;;;;;0.4;0.3;;;;;;;31.62;23.74414;937.786;;;;
2021/06/01 08:54:54;;;;;;;0.5;0.5;;;;;;;32.03;22.71191;937.7684;;;;
2021/06/01 08:57:19;;;;;;;0.3;0.3;;;;;;;31.35;23.58691;937.756;;;;
2021/06/01 09:00:19;;;;;;;0.8;0.5;;;;;;;31.21;23.86719;937.7502;;;;
2021/06/01 09:02:49;;;;;;;0.5;0.4;;;;;;;31.53;22.91309;937.7746;;;;
2021/06/01 09:05:16;;;;;;;1.1;0.7;;;;;;;31.83;23.62402;937.7478;;;;
2021/06/01 09:07:44;;;;;;;0.4;0.3;;;;;;;32.26;22.56738;937.6671;;;;
2021/06/01 09:11:10;;;;;;;1.2;0.4;;;;;;;31.47;23.9043;937.7333;;;;
2021/06/01 09:12:34;;;;;;;0.2;0.2;;;;;;;30.23;25.6543;937.73;;;;
2021/06/01 09:15:29;;;;;;;0.4;0.4;;;;;;;31.05;24.22949;937.6713;;;;
2021/06/01 09:20:55;;;;;;;1;0.4;;;;;;;29.79;25.67578;937.6146;;;;
2021/06/01 09:22:11;;;;;;;10;0.7;;;;;;;30.01;26.44043;937.5349;;;;
2021/06/01 09:24:37;;;;;;;0.3;0.3;;;;;;;28.38;28.88965;937.5045;;;;
2021/06/01 09:27:06;;;;;;;0.8;0.3;;;;;;;28.51;27.64941;937.5259;;;;
2021/06/01 09:29:28;;;;;;;1.8;0.8;;;;;;;28.68;28.68262;937.509;;;;
2021/06/01 09:31:56;;;;;;;0.8;0.7;;;;;;;27.44;30.28809;937.5014;;;;
2021/06/01 09:34:21;;;;;;;0.5;0.4;;;;;;;28.35;28.26855;937.4504;;;;
2021/06/01 09:36:46;;;;;;;0.6;0.6;;;;;;;28.43;28.86914;937.4494;;;;
2021/06/01 09:39:12;;;;;;;0.5;0.4;;;;;;;28.42;28.96387;937.3736;;;;
2021/06/01 09:41:37;;;;;;;0.4;0.3;;;;;;;28;29.75586;937.413;;;;
2021/06/01 09:44:05;;;;;;;0.9;0.8;;;;;;;28.52;28.10059;937.3647;;;;
2021/06/01 09:46:30;;;;;;;2.1;0.5;;;;;;;28.31;28.40918;937.3487;;;;
2021/06/01 09:48:55;;;;;;;1.4;0.6;;;;;;;28.1;27.69531;937.3024;;;;
2021/06/01 09:51:20;;;;;;;0.6;0.2;;;;;;;28.21;27.84473;937.3205;;;;
2021/06/01 09:53:52;;;;;;;0.3;0.3;;;;;;;28.52;27.32813;937.3283;;;;
2021/06/01 09:56:13;;;;;;;6.2;1.1;;;;;;;28.88;26.33887;937.265;;;;
2021/06/01 09:58:38;;;;;;;2.1;0.4;;;;;;;28.65;26.91992;937.28;;;;
2021/06/01 10:01:03;;;;;;;1.8;0.7;;;;;;;28.43;27.71582;937.2501;;;;
2021/06/01 10:03:35;;;;;;;0.3;0.3;;;;;;;26.86;30.27246;937.2566;;;;
2021/06/01 10:05:54;;;;;;;0.5;0.4;;;;;;;26.63;30.64844;937.1682;;;;
2021/06/01 10:08:21;;;;;;;1.8;0.6;;;;;;;25.77;30.74316;937.1777;;;;
2021/06/01 10:10:46;;;;;;;0.8;0.5;;;;;;;24.85;32.31934;937.1228;;;;
2021/06/01 10:13:11;;;;;;;1.5;0.6;;;;;;;24.84;33.52148;937.0916;;;;
2021/06/01 10:15:36;;;;;;;1.6;0.8;;;;;;;24.63;32.43359;937.1139;;;;
2021/06/01 10:18:02;;;;;;;0.5;0.4;;;;;;;24.74;34.68164;937.1099;;;;
2021/06/01 10:20:27;;;;;;;0.6;0.4;;;;;;;24.91;34.58887;937.0309;;;;
2021/06/01 10:22:55;;;;;;;0.6;0.6;;;;;;;25;32.45996;937.0327;;;;
2021/06/01 10:25:19;;;;;;;3.7;1;;;;;;;25.18;32.39063;937.035;;;;
2021/06/01 10:27:45;;;;;;;0.7;0.4;;;;;;;25.31;30.81738;937.0377;;;;
2021/06/01 10:30:11;;;;;;;5.5;0.6;;;;;;;25.21;33.5498;936.9175;;;;
2021/06/01 10:32:36;;;;;;;1.1;0.2;;;;;;;24.85;32.67285;936.9426;;;;
2021/06/01 10:35:01;;;;;;;5;0.9;;;;;;;24.87;32.8877;936.8269;;;;
2021/06/01 10:42:37;;;;;;;0.7;0.3;;;;;;;24.48;34.7207;936.8091;;;;
2021/06/01 10:44:54;;;;;;;1;0.4;;;;;;;24.06;34.5;936.8494;;;;
2021/06/01 10:50:22;;;;;;;0.6;0.4;;;;;;;24.19;36.18164;936.7558;;;;
2021/06/01 10:51:59;;;;;;;0.7;0.5;;;;;;;24.21;32.83789;936.7434;;;;
2021/06/01 10:54:24;;;;;;;0.5;0.5;;;;;;;23.79;37.59668;936.7053;;;;
2021/06/01 10:56:58;;;;;;;0.7;0.3;;;;;;;23.66;37.32715;936.7072;;;;
2021/06/01 10:59:14;;;;;;;0.4;0.4;;;;;;;23.96;35.65723;936.5973;;;;
2021/06/01 11:01:56;;;;;;;0.3;0.3;;;;;;;24.04;36.61719;936.6174;;;;
2021/06/01 11:04:04;;;;;;;0.5;0.3;;;;;;;24.02;34.95508;936.5915;;;;
2021/06/01 11:06:32;;;;;;;0.3;0.3;;;;;;;23.97;36.37598;936.5909;;;;
2021/06/01 11:08:54;;;;;;;0.6;0.5;;;;;;;23.69;35.11816;936.6113;;;;
2021/06/01 11:11:21;;;;;;;2.2;0.7;;;;;;;23.74;37.70996;936.5475;;;;
2021/06/01 11:13:46;;;;;;;0.4;0.3;;;;;;;23.72;36.01465;936.5507;;;;
2021/06/01 11:16:11;;;;;;;1.2;0.4;;;;;;;23.53;36.82227;936.5374;;;;
2021/06/01 11:18:39;;;;;;;0.5;0.4;;;;;;;23.33;38.61719;936.5374;;;;
2021/06/01 11:21:04;;;;;;;11.7;0.5;;;;;;;23.57;36.4375;936.4839;;;;
2021/06/01 11:23:35;;;;;;;0.8;0.3;;;;;;;23.66;37.04492;936.5192;;;;
2021/06/01 11:33:19;;;;;;;0.5;0.5;;;;;;;23.9;34.76953;936.4269;;;;
2021/06/01 11:35:38;;;;;;;0.2;0.2;;;;;;;24.14;34.45801;936.3861;;;;
2021/06/01 11:38:08;;;;;;;1.8;0.6;;;;;;;24.06;36.125;936.341;;;;
2021/06/01 11:40:30;;;;;;;1;0.5;;;;;;;24.32;34.58984;936.3882;;;;
2021/06/01 11:42:52;;;;;;;0.8;0.6;;;;;;;24.25;36.58789;936.2647;;;;
2021/06/01 11:45:18;;;;;;;1;0.4;;;;;;;24.06;34.59375;936.2734;;;;
2021/06/01 11:47:52;;;;;;;0.3;0.3;;;;;;;23.83;38.70605;936.3102;;;;
2021/06/01 11:52:32;;;;;;;0.7;0.5;;;;;;;23.3;37.50879;936.2883;;;;
2021/06/01 11:54:58;;;;;;;0.2;0.2;;;;;;;23.53;36.02246;936.2283;;;;
2021/06/01 11:57:28;;;;;;;0.9;0.4;;;;;;;23.65;37.92676;936.2267;;;;
2021/06/01 12:03:02;;;;;;;0.8;0.5;;;;;;;23.54;37.43457;936.1761;;;;
2021/06/01 12:05:29;;;;;;;10;0.5;;;;;;;23.65;36.32715;936.2059;;;;
2021/06/01 12:12:04;;;;;;;0.6;0.5;;;;;;;23.78;36.25488;936.1317;;;;
2021/06/01 12:17:07;;;;;;;0.3;0.3;;;;;;;23.96;36.5166;936.1789;;;;
2021/06/01 12:19:10;;;;;;;0.3;0.3;;;;;;;24.15;34.56543;936.1806;;;;
2021/06/01 12:21:37;;;;;;;0.3;0.3;;;;;;;24.16;36.58008;936.158;;;;
2021/06/01 12:24:03;;;;;;;0.3;0.3;;;;;;;23.97;36.07031;936.1244;;;;
2021/06/01 12:26:30;;;;;;;0.4;0.3;;;;;;;23.64;38.4668;936.1324;;;;
2021/06/01 12:31:24;;;;;;;0.7;0.3;;;;;;;23.86;36.37891;935.9828;;;;
2021/06/01 12:33:47;;;;;;;1.5;0.6;;;;;;;23.93;35.11328;936.0276;;;;
2021/06/01 12:37:12;;;;;;;0.4;0.4;;;;;;;24.12;35.51758;936.0825;;;;
2021/06/01 12:43:39;;;;;;;0.3;0.3;;;;;;;24.03;35.70996;936.0289;;;;
2021/06/01 12:46:09;;;;;;;0.4;0.4;;;;;;;24.13;36.97852;936.0511;;;;
2021/06/01 13:13:31;;;;;;;2;0.4;;;;;;;23.79;33.87891;935.9392;;;;
2021/06/01 13:19:55;;;;;;;0.7;0.6;;;;;;;23.53;36.75195;935.9129;;;;
2021/06/01 13:22:36;;;;;;;0.3;0.3;;;;;;;23.63;35.18457;935.8195;;;;
2021/06/01 13:32:16;;;;;;;0.5;0.5;;;;;;;23.66;33.28027;935.8086;;;;
2021/06/01 13:37:14;;;;;;;5.6;1.2;;;;;;;23.71;34.26074;935.7797;;;;
2021/06/01 13:39:33;;;;;;;0.9;0.4;;;;;;;23.48;35.52539;935.7761;;;;
2021/06/01 13:46:39;;;;;;;0.6;0.2;;;;;;;23.79;33.89063;935.7139;;;;
2021/06/01 13:49:17;;;;;;;1.5;0.5;;;;;;;23.68;34.89355;935.7498;;;;
2021/06/01 13:56:30;;;;;;;0.5;0.3;;;;;;;23.65;32.64453;935.7067;;;;
2021/06/01 13:59:01;;;;;;;1.8;0.7;;;;;;;23.72;33.39063;935.7086;;;;
2021/06/01 14:01:26;;;;;;;0.4;0.4;;;;;;;23.86;34.19043;935.677;;;;
2021/06/01 14:27:52;;;;;;;0.7;0.5;;;;;;;23.56;33.01367;935.4614;;;;
2021/06/01 14:30:29;;;;;;;0.7;0.4;;;;;;;23.48;34.36035;935.5269;;;;
2021/06/01 14:38:09;;;;;;;0.9;0.5;;;;;;;23.05;35.56152;935.5351;;;;
2021/06/01 15:28:56;;;;;;;0.8;0.4;;;;;;;22.86;35.41699;935.2157;;;;
2021/06/01 15:31:33;;;;;;;0.3;0.3;;;;;;;22.83;34.68652;935.1806;;;;
2021/06/01 15:41:31;;;;;;;1.1;0.5;;;;;;;22.76;34.10547;935.1844;;;;
2021/06/01 15:48:49;;;;;;;0.4;0.4;;;;;;;22.74;33.23535;935.0879;;;;
2021/06/01 15:51:00;;;;;;;0.9;0.7;;;;;;;22.79;35;935.098;;;;
2021/06/01 15:53:36;;;;;;;0.9;0.5;;;;;;;22.8;33.37988;935.0183;;;;
2021/06/01 16:13:28;;;;;;;0.2;0.2;;;;;;;22.55;33.18555;935.0389;;;;
2021/06/01 16:21:22;;;;;;;0.6;0.5;;;;;;;22.47;33.43848;935.0739;;;;
2021/06/01 16:22:56;;;;;;;0.4;0.4;;;;;;;22.31;33.66016;935.0261;;;;
2021/06/01 16:30:14;;;;;;;0.5;0.3;;;;;;;22.53;33.53711;935.0715;;;;
2021/06/01 16:42:16;;;;;;;0.2;0.2;;;;;;;22.56;35.13477;935.0775;;;;
2021/06/01 17:03:07;;;;;;;0.4;0.3;;;;;;;22.55;34.30078;935.0455;;;;
2021/06/01 17:04:03;;;;;;;0.5;0.4;;;;;;;21.77;33.99414;935.2434;;;;
2021/06/01 17:06:25;;;;;;;0.4;0.4;;;;;;;21.69;34.31543;935.2098;;;;
2021/06/01 17:09:07;;;;;;;0.3;0.3;;;;;;;21.62;34.90723;935.2067;;;;
2021/06/01 17:11:17;;;;;;;0.3;0.3;;;;;;;21.55;34.67969;935.1672;;;;
2021/06/01 17:13:43;;;;;;;2.2;0.7;;;;;;;21.49;34.82715;935.2837;;;;
2021/06/01 17:16:20;;;;;;;0.4;0.3;;;;;;;21.36;34.8291;935.2597;;;;
2021/06/01 17:23:44;;;;;;;0.2;0.2;;;;;;;21.16;34.56738;935.2503;;;;
2021/06/01 17:30:59;;;;;;;0.2;0.2;;;;;;;20.84;35.71191;935.3106;;;;
2021/06/01 17:35:41;;;;;;;0.3;0.2;;;;;;;21;35.53711;935.3948;;;;
2021/06/01 17:38:07;;;;;;;0.4;0.4;;;;;;;21.01;35.37402;935.3624;;;;
2021/06/01 17:40:33;;;;;;;1.3;0.8;;;;;;;20.97;35.37109;935.3547;;;;
2021/06/01 17:42:59;;;;;;;1.3;0.6;;;;;;;20.87;35.21191;935.3339;;;;
2021/06/01 17:45:25;;;;;;;0.2;0.2;;;;;;;20.72;34.93066;935.288;;;;
2021/06/01 17:50:18;;;;;;;0.5;0.4;;;;;;;20.54;35.61816;935.4037;;;;
2021/06/01 17:52:48;;;;;;;0.9;0.5;;;;;;;20.64;35.09961;935.382;;;;
2021/06/01 17:55:16;;;;;;;0.4;0.4;;;;;;;20.52;36.0127;935.3739;;;;
2021/06/01 17:57:40;;;;;;;0.9;0.5;;;;;;;20.41;36.17969;935.3956;;;;
2021/06/01 18:00:05;;;;;;;4.1;0.6;;;;;;;20.37;37.04004;935.3456;;;;
2021/06/01 18:02:30;;;;;;;0.4;0.3;;;;;;;20.51;36.49121;935.3165;;;;
2021/06/01 18:04:58;;;;;;;7.6;0.7;;;;;;;20.41;36.55273;935.3699;;;;
2021/06/01 18:08:01;;;;;;;1;0.5;;;;;;;20.37;36.61914;935.387;;;;
2021/06/01 18:10:54;;;;;;;0.7;0.6;;;;;;;20.24;37.47266;935.4172;;;;
2021/06/01 18:13:13;;;;;;;1.8;0.4;;;;;;;20.2;36.83984;935.3912;;;;
2021/06/01 18:42:25;;;;;;;1.7;0.2;;;;;;;19.75;39.70508;935.4559;;;;
2021/06/01 18:52:02;;;;;;;1.4;0.8;;;;;;;19.49;39.74023;935.5478;;;;
2021/06/01 19:01:41;;;;;;;0.7;0.3;;;;;;;19.38;39.7998;935.5305;;;;
2021/06/01 19:06:27;;;;;;;2.3;0.7;;;;;;;19.19;39.33984;935.5906;;;;
2021/06/01 19:25:24;;;;;;;2.5;1;;;;;;;17.55;48.16211;935.8625;;;;
2021/06/01 19:28:42;;;;;;;0.2;0.2;;;;;;;17.43;48.5332;936.0139;;;;
2021/06/01 19:49:58;;;;;;;1.3;0.6;;;;;;;17.32;48.21973;936.2218;;;;
2021/06/01 19:52:15;;;;;;;4.2;0.7;;;;;;;17.34;48.23242;936.2739;;;;
2021/06/01 19:54:41;;;;;;;2.7;0.9;;;;;;;17.35;48.24609;936.3315;;;;
2021/06/01 19:57:06;;;;;;;0.5;0.4;;;;;;;17.33;48.76563;936.3464;;;;
2021/06/01 19:59:31;;;;;;;0.8;0.6;;;;;;;17.27;48.64258;936.3444;;;;
2021/06/01 20:01:56;;;;;;;1;0.6;;;;;;;17.32;48.52148;936.3981;;;;
2021/06/01 20:04:21;;;;;;;0.7;0.5;;;;;;;17.31;48.31055;936.4137;;;;
2021/06/01 20:06:48;;;;;;;0.8;0.5;;;;;;;17.26;48.46777;936.3962;;;;
2021/06/01 20:09:14;;;;;;;0.8;0.8;;;;;;;17.24;49.10352;936.4294;;;;